sensor_id;sensor_type;location;lat;lon;timestamp;P1;durP1;ratioP1;P2;durP2;ratioP2
70707;SDS011;58277;47.316;18.908;2024-03-29T00:00:14;0.60;;;0.28;;
70707;SDS011;58277;47.316;18.908;2024-03-29T00:02:37;0.50;;;0.20;;
70707;SDS011;58277;47.316;18.908;2024-03-29T00:04:59;0.57;;;0.20;;
70707;SDS011;58277;47.316;18.908;2024-03-29T00:07:20;2.15;;;0.30;;
70707;SDS011;58277;47.316;18.908;2024-03-29T00:09:42;1.23;;;0.20;;
70707;SDS011;58277;47.316;18.908;2024-03-29T00:12:04;0.70;;;0.30;;
70707;SDS011;58277;47.316;18.908;2024-03-29T00:14:27;1.30;;;0.30;;
70707;SDS011;58277;47.316;18.908;2024-03-29T00:16:48;0.88;;;0.30;;
70707;SDS011;58277;47.316;18.908;2024-03-29T00:19:10;1.08;;;0.30;;
70707;SDS011;58277;47.316;18.908;2024-03-29T00:21:32;1.08;;;0.25;;
70707;SDS011;58277;47.316;18.908;2024-03-29T00:23:54;0.90;;;0.30;;
70707;SDS011;58277;47.316;18.908;2024-03-29T00:26:15;0.47;;;0.20;;
70707;SDS011;58277;47.316;18.908;2024-03-29T00:28:37;0.70;;;0.20;;
70707;SDS011;58277;47.316;18.908;2024-03-29T00:31:00;0.68;;;0.30;;
70707;SDS011;58277;47.316;18.908;2024-03-29T00:33:21;1.33;;;0.30;;
70707;SDS011;58277;47.316;18.908;2024-03-29T00:35:43;0.98;;;0.38;;
70707;SDS011;58277;47.316;18.908;2024-03-29T00:38:05;0.57;;;0.23;;
70707;SDS011;58277;47.316;18.908;2024-03-29T00:40:26;1.50;;;0.30;;
70707;SDS011;58277;47.316;18.908;2024-03-29T00:42:48;0.80;;;0.22;;
70707;SDS011;58277;47.316;18.908;2024-03-29T00:45:10;0.70;;;0.20;;
70707;SDS011;58277;47.316;18.908;2024-03-29T00:47:31;1.33;;;0.30;;
70707;SDS011;58277;47.316;18.908;2024-03-29T00:49:54;0.70;;;0.30;;
70707;SDS011;58277;47.316;18.908;2024-03-29T00:52:16;1.52;;;0.40;;
70707;SDS011;58277;47.316;18.908;2024-03-29T00:54:37;3.17;;;0.93;;
70707;SDS011;58277;47.316;18.908;2024-03-29T00:56:59;3.35;;;0.70;;
70707;SDS011;58277;47.316;18.908;2024-03-29T00:59:21;2.13;;;0.82;;
70707;SDS011;58277;47.316;18.908;2024-03-29T01:01:44;1.40;;;0.50;;
70707;SDS011;58277;47.316;18.908;2024-03-29T01:04:05;0.88;;;0.38;;
70707;SDS011;58277;47.316;18.908;2024-03-29T01:06:28;0.60;;;0.30;;
70707;SDS011;58277;47.316;18.908;2024-03-29T01:08:49;0.90;;;0.40;;
70707;SDS011;58277;47.316;18.908;2024-03-29T01:11:11;1.20;;;0.50;;
70707;SDS011;58277;47.316;18.908;2024-03-29T01:13:32;1.07;;;0.50;;
70707;SDS011;58277;47.316;18.908;2024-03-29T01:15:54;0.70;;;0.40;;
70707;SDS011;58277;47.316;18.908;2024-03-29T01:18:16;1.10;;;0.45;;
70707;SDS011;58277;47.316;18.908;2024-03-29T01:20:38;0.70;;;0.30;;
70707;SDS011;58277;47.316;18.908;2024-03-29T01:23:00;0.52;;;0.30;;
70707;SDS011;58277;47.316;18.908;2024-03-29T01:25:21;1.13;;;0.40;;
70707;SDS011;58277;47.316;18.908;2024-03-29T01:27:45;0.60;;;0.30;;
70707;SDS011;58277;47.316;18.908;2024-03-29T01:30:07;0.80;;;0.30;;
70707;SDS011;58277;47.316;18.908;2024-03-29T01:32:33;0.52;;;0.30;;
70707;SDS011;58277;47.316;18.908;2024-03-29T01:34:55;0.70;;;0.38;;
70707;SDS011;58277;47.316;18.908;2024-03-29T01:37:17;1.10;;;0.30;;
70707;SDS011;58277;47.316;18.908;2024-03-29T01:39:38;1.13;;;0.30;;
70707;SDS011;58277;47.316;18.908;2024-03-29T01:42:00;0.80;;;0.30;;
70707;SDS011;58277;47.316;18.908;2024-03-29T01:44:22;1.10;;;0.20;;
70707;SDS011;58277;47.316;18.908;2024-03-29T01:46:43;0.80;;;0.30;;
70707;SDS011;58277;47.316;18.908;2024-03-29T01:49:06;0.60;;;0.30;;
70707;SDS011;58277;47.316;18.908;2024-03-29T01:51:27;0.70;;;0.30;;
70707;SDS011;58277;47.316;18.908;2024-03-29T01:53:50;1.60;;;0.32;;
70707;SDS011;58277;47.316;18.908;2024-03-29T01:56:14;1.70;;;0.30;;
70707;SDS011;58277;47.316;18.908;2024-03-29T01:58:37;0.75;;;0.40;;
70707;SDS011;58277;47.316;18.908;2024-03-29T02:01:00;0.90;;;0.30;;
70707;SDS011;58277;47.316;18.908;2024-03-29T02:03:22;0.80;;;0.20;;
70707;SDS011;58277;47.316;18.908;2024-03-29T02:05:45;1.92;;;0.30;;
70707;SDS011;58277;47.316;18.908;2024-03-29T02:08:09;0.75;;;0.25;;
70707;SDS011;58277;47.316;18.908;2024-03-29T02:10:32;0.80;;;0.30;;
70707;SDS011;58277;47.316;18.908;2024-03-29T02:12:53;0.70;;;0.30;;
70707;SDS011;58277;47.316;18.908;2024-03-29T02:15:15;0.50;;;0.20;;
70707;SDS011;58277;47.316;18.908;2024-03-29T02:17:38;0.70;;;0.30;;
70707;SDS011;58277;47.316;18.908;2024-03-29T02:19:59;0.98;;;0.20;;
70707;SDS011;58277;47.316;18.908;2024-03-29T02:22:21;1.00;;;0.40;;
70707;SDS011;58277;47.316;18.908;2024-03-29T02:24:43;1.23;;;0.20;;
70707;SDS011;58277;47.316;18.908;2024-03-29T02:27:05;1.00;;;0.30;;
70707;SDS011;58277;47.316;18.908;2024-03-29T02:29:26;0.60;;;0.20;;
70707;SDS011;58277;47.316;18.908;2024-03-29T02:31:48;2.15;;;0.20;;
70707;SDS011;58277;47.316;18.908;2024-03-29T02:34:10;1.42;;;0.25;;
70707;SDS011;58277;47.316;18.908;2024-03-29T02:36:31;0.70;;;0.20;;
70707;SDS011;58277;47.316;18.908;2024-03-29T02:38:53;0.63;;;0.30;;
70707;SDS011;58277;47.316;18.908;2024-03-29T02:41:15;0.75;;;0.30;;
70707;SDS011;58277;47.316;18.908;2024-03-29T02:43:36;1.00;;;0.22;;
70707;SDS011;58277;47.316;18.908;2024-03-29T02:45:58;1.75;;;0.60;;
70707;SDS011;58277;47.316;18.908;2024-03-29T02:48:20;1.03;;;0.30;;
70707;SDS011;58277;47.316;18.908;2024-03-29T02:50:42;2.15;;;0.40;;
70707;SDS011;58277;47.316;18.908;2024-03-29T02:53:04;0.60;;;0.30;;
70707;SDS011;58277;47.316;18.908;2024-03-29T02:55:25;1.73;;;0.40;;
70707;SDS011;58277;47.316;18.908;2024-03-29T02:57:47;1.27;;;0.60;;
70707;SDS011;58277;47.316;18.908;2024-03-29T03:00:09;1.00;;;0.40;;
70707;SDS011;58277;47.316;18.908;2024-03-29T03:02:31;0.90;;;0.30;;
70707;SDS011;58277;47.316;18.908;2024-03-29T03:04:53;0.80;;;0.50;;
70707;SDS011;58277;47.316;18.908;2024-03-29T03:07:15;1.17;;;0.50;;
70707;SDS011;58277;47.316;18.908;2024-03-29T03:09:55;1.10;;;0.40;;
70707;SDS011;58277;47.316;18.908;2024-03-29T03:12:35;1.07;;;0.30;;
70707;SDS011;58277;47.316;18.908;2024-03-29T03:14:57;1.60;;;0.40;;
70707;SDS011;58277;47.316;18.908;2024-03-29T03:17:20;0.57;;;0.30;;
70707;SDS011;58277;47.316;18.908;2024-03-29T03:19:42;1.73;;;0.30;;
70707;SDS011;58277;47.316;18.908;2024-03-29T03:22:04;1.25;;;0.50;;
70707;SDS011;58277;47.316;18.908;2024-03-29T03:24:25;0.77;;;0.40;;
70707;SDS011;58277;47.316;18.908;2024-03-29T03:26:47;1.52;;;0.40;;
70707;SDS011;58277;47.316;18.908;2024-03-29T03:29:09;0.93;;;0.40;;
70707;SDS011;58277;47.316;18.908;2024-03-29T03:31:31;2.58;;;0.60;;
70707;SDS011;58277;47.316;18.908;2024-03-29T03:33:52;1.15;;;0.52;;
70707;SDS011;58277;47.316;18.908;2024-03-29T03:36:14;1.27;;;0.40;;
70707;SDS011;58277;47.316;18.908;2024-03-29T03:38:36;1.85;;;0.47;;
70707;SDS011;58277;47.316;18.908;2024-03-29T03:40:59;1.40;;;0.52;;
70707;SDS011;58277;47.316;18.908;2024-03-29T03:43:21;1.75;;;0.52;;
70707;SDS011;58277;47.316;18.908;2024-03-29T03:45:43;1.63;;;0.50;;
70707;SDS011;58277;47.316;18.908;2024-03-29T03:48:11;1.77;;;0.60;;
70707;SDS011;58277;47.316;18.908;2024-03-29T03:50:37;3.58;;;0.60;;
70707;SDS011;58277;47.316;18.908;2024-03-29T03:52:59;2.13;;;0.80;;
70707;SDS011;58277;47.316;18.908;2024-03-29T03:55:21;2.45;;;1.00;;
70707;SDS011;58277;47.316;18.908;2024-03-29T03:57:43;1.73;;;0.80;;
70707;SDS011;58277;47.316;18.908;2024-03-29T04:00:05;1.20;;;0.60;;
70707;SDS011;58277;47.316;18.908;2024-03-29T04:02:37;1.60;;;0.55;;
70707;SDS011;58277;47.316;18.908;2024-03-29T04:04:59;1.92;;;0.60;;
70707;SDS011;58277;47.316;18.908;2024-03-29T04:07:20;1.80;;;0.80;;
70707;SDS011;58277;47.316;18.908;2024-03-29T04:09:42;2.15;;;0.70;;
70707;SDS011;58277;47.316;18.908;2024-03-29T04:12:04;1.60;;;0.70;;
70707;SDS011;58277;47.316;18.908;2024-03-29T04:14:27;2.20;;;0.90;;
70707;SDS011;58277;47.316;18.908;2024-03-29T04:16:48;1.60;;;0.80;;
70707;SDS011;58277;47.316;18.908;2024-03-29T04:19:11;1.63;;;0.88;;
70707;SDS011;58277;47.316;18.908;2024-03-29T04:21:32;2.00;;;1.00;;
70707;SDS011;58277;47.316;18.908;2024-03-29T04:23:54;2.07;;;0.77;;
70707;SDS011;58277;47.316;18.908;2024-03-29T04:26:15;2.30;;;0.90;;
70707;SDS011;58277;47.316;18.908;2024-03-29T04:28:37;1.95;;;1.00;;
70707;SDS011;58277;47.316;18.908;2024-03-29T04:30:59;1.90;;;0.90;;
70707;SDS011;58277;47.316;18.908;2024-03-29T04:33:22;1.90;;;0.82;;
70707;SDS011;58277;47.316;18.908;2024-03-29T04:36:03;2.00;;;0.70;;
70707;SDS011;58277;47.316;18.908;2024-03-29T04:38:30;1.80;;;0.90;;
70707;SDS011;58277;47.316;18.908;2024-03-29T04:40:53;1.70;;;0.90;;
70707;SDS011;58277;47.316;18.908;2024-03-29T04:43:17;2.70;;;1.02;;
70707;SDS011;58277;47.316;18.908;2024-03-29T04:45:39;2.78;;;1.30;;
70707;SDS011;58277;47.316;18.908;2024-03-29T04:48:00;2.50;;;1.10;;
70707;SDS011;58277;47.316;18.908;2024-03-29T04:50:22;2.42;;;1.13;;
70707;SDS011;58277;47.316;18.908;2024-03-29T04:52:44;3.53;;;1.35;;
70707;SDS011;58277;47.316;18.908;2024-03-29T04:55:05;2.63;;;1.40;;
70707;SDS011;58277;47.316;18.908;2024-03-29T04:57:27;3.00;;;1.40;;
70707;SDS011;58277;47.316;18.908;2024-03-29T04:59:49;3.93;;;1.73;;
70707;SDS011;58277;47.316;18.908;2024-03-29T05:02:10;2.92;;;1.60;;
70707;SDS011;58277;47.316;18.908;2024-03-29T05:04:32;4.32;;;1.80;;
70707;SDS011;58277;47.316;18.908;2024-03-29T05:06:54;6.47;;;1.80;;
70707;SDS011;58277;47.316;18.908;2024-03-29T05:09:17;3.75;;;1.77;;
70707;SDS011;58277;47.316;18.908;2024-03-29T05:11:38;3.00;;;1.70;;
70707;SDS011;58277;47.316;18.908;2024-03-29T05:14:00;2.47;;;1.30;;
70707;SDS011;58277;47.316;18.908;2024-03-29T05:16:23;4.00;;;1.63;;
70707;SDS011;58277;47.316;18.908;2024-03-29T05:18:45;4.40;;;1.50;;
70707;SDS011;58277;47.316;18.908;2024-03-29T05:21:07;3.60;;;1.90;;
70707;SDS011;58277;47.316;18.908;2024-03-29T05:23:30;4.23;;;1.63;;
70707;SDS011;58277;47.316;18.908;2024-03-29T05:25:52;3.08;;;1.85;;
70707;SDS011;58277;47.316;18.908;2024-03-29T05:28:14;3.65;;;1.80;;
70707;SDS011;58277;47.316;18.908;2024-03-29T05:30:35;1.50;;;0.80;;
70707;SDS011;58277;47.316;18.908;2024-03-29T05:32:57;1.60;;;0.77;;
70707;SDS011;58277;47.316;18.908;2024-03-29T05:35:19;1.93;;;0.63;;
70707;SDS011;58277;47.316;18.908;2024-03-29T05:37:40;4.82;;;0.73;;
70707;SDS011;58277;47.316;18.908;2024-03-29T05:40:03;2.03;;;0.68;;
70707;SDS011;58277;47.316;18.908;2024-03-29T05:42:27;2.10;;;0.68;;
70707;SDS011;58277;47.316;18.908;2024-03-29T05:44:51;2.67;;;0.88;;
70707;SDS011;58277;47.316;18.908;2024-03-29T05:47:12;2.37;;;0.77;;
70707;SDS011;58277;47.316;18.908;2024-03-29T05:49:34;1.52;;;0.75;;
70707;SDS011;58277;47.316;18.908;2024-03-29T05:51:56;2.58;;;0.77;;
70707;SDS011;58277;47.316;18.908;2024-03-29T05:54:18;1.73;;;0.68;;
70707;SDS011;58277;47.316;18.908;2024-03-29T05:56:40;1.45;;;0.70;;
70707;SDS011;58277;47.316;18.908;2024-03-29T05:59:02;1.60;;;0.60;;
70707;SDS011;58277;47.316;18.908;2024-03-29T06:01:24;2.10;;;0.70;;
70707;SDS011;58277;47.316;18.908;2024-03-29T06:03:46;2.28;;;0.70;;
70707;SDS011;58277;47.316;18.908;2024-03-29T06:06:08;2.05;;;0.80;;
70707;SDS011;58277;47.316;18.908;2024-03-29T06:08:38;1.20;;;0.70;;
70707;SDS011;58277;47.316;18.908;2024-03-29T06:11:00;1.30;;;0.60;;
70707;SDS011;58277;47.316;18.908;2024-03-29T06:13:22;2.13;;;0.55;;
70707;SDS011;58277;47.316;18.908;2024-03-29T06:16:02;1.85;;;0.60;;
70707;SDS011;58277;47.316;18.908;2024-03-29T06:18:43;1.67;;;0.60;;
70707;SDS011;58277;47.316;18.908;2024-03-29T06:21:04;1.90;;;0.60;;
70707;SDS011;58277;47.316;18.908;2024-03-29T06:23:26;1.20;;;0.50;;
70707;SDS011;58277;47.316;18.908;2024-03-29T06:25:48;2.28;;;0.60;;
70707;SDS011;58277;47.316;18.908;2024-03-29T06:28:10;1.02;;;0.68;;
70707;SDS011;58277;47.316;18.908;2024-03-29T06:30:31;1.17;;;0.55;;
70707;SDS011;58277;47.316;18.908;2024-03-29T06:32:53;2.22;;;0.60;;
70707;SDS011;58277;47.316;18.908;2024-03-29T06:35:14;3.10;;;0.70;;
70707;SDS011;58277;47.316;18.908;2024-03-29T06:37:36;2.05;;;0.57;;
70707;SDS011;58277;47.316;18.908;2024-03-29T06:39:58;1.92;;;0.63;;
70707;SDS011;58277;47.316;18.908;2024-03-29T06:42:19;1.15;;;0.45;;
70707;SDS011;58277;47.316;18.908;2024-03-29T06:44:42;0.90;;;0.50;;
70707;SDS011;58277;47.316;18.908;2024-03-29T06:47:03;1.63;;;0.70;;
70707;SDS011;58277;47.316;18.908;2024-03-29T06:49:26;1.58;;;0.45;;
70707;SDS011;58277;47.316;18.908;2024-03-29T06:51:48;1.40;;;0.60;;
70707;SDS011;58277;47.316;18.908;2024-03-29T06:54:09;1.55;;;0.40;;
70707;SDS011;58277;47.316;18.908;2024-03-29T06:56:32;1.00;;;0.50;;
70707;SDS011;58277;47.316;18.908;2024-03-29T06:58:54;2.80;;;0.60;;
70707;SDS011;58277;47.316;18.908;2024-03-29T07:01:15;1.50;;;0.70;;
70707;SDS011;58277;47.316;18.908;2024-03-29T07:03:37;2.22;;;0.80;;
70707;SDS011;58277;47.316;18.908;2024-03-29T07:06:00;2.78;;;0.70;;
70707;SDS011;58277;47.316;18.908;2024-03-29T07:08:21;1.40;;;0.55;;
70707;SDS011;58277;47.316;18.908;2024-03-29T07:10:43;1.40;;;0.50;;
70707;SDS011;58277;47.316;18.908;2024-03-29T07:13:08;1.55;;;0.57;;
70707;SDS011;58277;47.316;18.908;2024-03-29T07:15:30;1.20;;;0.50;;
70707;SDS011;58277;47.316;18.908;2024-03-29T07:17:52;1.00;;;0.63;;
70707;SDS011;58277;47.316;18.908;2024-03-29T07:20:14;1.60;;;0.50;;
70707;SDS011;58277;47.316;18.908;2024-03-29T07:22:36;1.63;;;0.60;;
70707;SDS011;58277;47.316;18.908;2024-03-29T07:24:58;1.10;;;0.50;;
70707;SDS011;58277;47.316;18.908;2024-03-29T07:27:20;1.85;;;0.65;;
70707;SDS011;58277;47.316;18.908;2024-03-29T07:29:42;1.17;;;0.40;;
70707;SDS011;58277;47.316;18.908;2024-03-29T07:32:05;1.33;;;0.60;;
70707;SDS011;58277;47.316;18.908;2024-03-29T07:34:27;0.97;;;0.57;;
70707;SDS011;58277;47.316;18.908;2024-03-29T07:36:48;1.30;;;0.50;;
70707;SDS011;58277;47.316;18.908;2024-03-29T07:39:11;1.00;;;0.50;;
70707;SDS011;58277;47.316;18.908;2024-03-29T07:41:33;1.10;;;0.50;;
70707;SDS011;58277;47.316;18.908;2024-03-29T07:43:55;0.60;;;0.30;;
70707;SDS011;58277;47.316;18.908;2024-03-29T07:46:20;1.50;;;0.40;;
70707;SDS011;58277;47.316;18.908;2024-03-29T07:48:43;0.90;;;0.40;;
70707;SDS011;58277;47.316;18.908;2024-03-29T07:51:04;0.93;;;0.35;;
70707;SDS011;58277;47.316;18.908;2024-03-29T07:53:26;0.90;;;0.40;;
70707;SDS011;58277;47.316;18.908;2024-03-29T07:55:49;1.08;;;0.40;;
70707;SDS011;58277;47.316;18.908;2024-03-29T07:58:11;1.00;;;0.40;;
70707;SDS011;58277;47.316;18.908;2024-03-29T08:00:33;1.58;;;0.30;;
70707;SDS011;58277;47.316;18.908;2024-03-29T08:02:55;0.65;;;0.30;;
70707;SDS011;58277;47.316;18.908;2024-03-29T08:05:17;0.73;;;0.30;;
70707;SDS011;58277;47.316;18.908;2024-03-29T08:07:39;1.05;;;0.40;;
70707;SDS011;58277;47.316;18.908;2024-03-29T08:10:00;0.60;;;0.30;;
70707;SDS011;58277;47.316;18.908;2024-03-29T08:12:22;0.52;;;0.30;;
70707;SDS011;58277;47.316;18.908;2024-03-29T08:14:44;0.55;;;0.30;;
70707;SDS011;58277;47.316;18.908;2024-03-29T08:17:07;1.08;;;0.45;;
70707;SDS011;58277;47.316;18.908;2024-03-29T08:19:30;0.88;;;0.40;;
70707;SDS011;58277;47.316;18.908;2024-03-29T08:21:52;1.10;;;0.40;;
70707;SDS011;58277;47.316;18.908;2024-03-29T08:24:14;0.85;;;0.40;;
70707;SDS011;58277;47.316;18.908;2024-03-29T08:26:36;1.33;;;0.50;;
70707;SDS011;58277;47.316;18.908;2024-03-29T08:28:58;1.38;;;0.40;;
70707;SDS011;58277;47.316;18.908;2024-03-29T08:31:19;0.75;;;0.40;;
70707;SDS011;58277;47.316;18.908;2024-03-29T08:33:41;1.50;;;0.60;;
70707;SDS011;58277;47.316;18.908;2024-03-29T08:36:05;1.20;;;0.68;;
70707;SDS011;58277;47.316;18.908;2024-03-29T08:38:35;1.52;;;0.70;;
70707;SDS011;58277;47.316;18.908;2024-03-29T08:40:57;2.28;;;0.80;;
70707;SDS011;58277;47.316;18.908;2024-03-29T08:43:19;1.65;;;0.70;;
70707;SDS011;58277;47.316;18.908;2024-03-29T08:45:41;1.73;;;0.80;;
70707;SDS011;58277;47.316;18.908;2024-03-29T08:48:03;1.75;;;0.70;;
70707;SDS011;58277;47.316;18.908;2024-03-29T08:50:26;1.20;;;0.63;;
70707;SDS011;58277;47.316;18.908;2024-03-29T08:52:48;1.05;;;0.45;;
70707;SDS011;58277;47.316;18.908;2024-03-29T08:55:09;1.27;;;0.40;;
70707;SDS011;58277;47.316;18.908;2024-03-29T08:57:31;0.70;;;0.27;;
70707;SDS011;58277;47.316;18.908;2024-03-29T08:59:54;1.38;;;0.35;;
70707;SDS011;58277;47.316;18.908;2024-03-29T09:02:15;0.90;;;0.40;;
70707;SDS011;58277;47.316;18.908;2024-03-29T09:04:37;0.90;;;0.30;;
70707;SDS011;58277;47.316;18.908;2024-03-29T09:06:59;0.98;;;0.40;;
70707;SDS011;58277;47.316;18.908;2024-03-29T09:09:23;1.20;;;0.50;;
70707;SDS011;58277;47.316;18.908;2024-03-29T09:11:45;0.85;;;0.45;;
70707;SDS011;58277;47.316;18.908;2024-03-29T09:14:06;1.38;;;0.50;;
70707;SDS011;58277;47.316;18.908;2024-03-29T09:16:30;1.60;;;0.40;;
70707;SDS011;58277;47.316;18.908;2024-03-29T09:18:54;1.05;;;0.50;;
70707;SDS011;58277;47.316;18.908;2024-03-29T09:21:16;1.00;;;0.40;;
70707;SDS011;58277;47.316;18.908;2024-03-29T09:23:37;1.10;;;0.30;;
70707;SDS011;58277;47.316;18.908;2024-03-29T09:26:06;0.50;;;0.30;;
70707;SDS011;58277;47.316;18.908;2024-03-29T09:28:28;0.98;;;0.40;;
70707;SDS011;58277;47.316;18.908;2024-03-29T09:30:49;0.95;;;0.30;;
70707;SDS011;58277;47.316;18.908;2024-03-29T09:33:12;1.10;;;0.40;;
70707;SDS011;58277;47.316;18.908;2024-03-29T09:35:33;1.10;;;0.30;;
70707;SDS011;58277;47.316;18.908;2024-03-29T09:37:55;1.45;;;0.50;;
70707;SDS011;58277;47.316;18.908;2024-03-29T09:40:20;1.40;;;0.32;;
70707;SDS011;58277;47.316;18.908;2024-03-29T09:42:44;1.25;;;0.60;;
70707;SDS011;58277;47.316;18.908;2024-03-29T09:45:06;1.20;;;0.47;;
70707;SDS011;58277;47.316;18.908;2024-03-29T09:47:29;1.20;;;0.50;;
70707;SDS011;58277;47.316;18.908;2024-03-29T09:49:52;1.27;;;0.50;;
70707;SDS011;58277;47.316;18.908;2024-03-29T09:52:16;2.20;;;0.40;;
70707;SDS011;58277;47.316;18.908;2024-03-29T09:54:39;1.40;;;0.50;;
70707;SDS011;58277;47.316;18.908;2024-03-29T09:57:01;1.30;;;0.40;;
70707;SDS011;58277;47.316;18.908;2024-03-29T09:59:24;1.10;;;0.50;;
70707;SDS011;58277;47.316;18.908;2024-03-29T10:01:48;1.60;;;0.55;;
70707;SDS011;58277;47.316;18.908;2024-03-29T10:04:12;0.93;;;0.50;;
70707;SDS011;58277;47.316;18.908;2024-03-29T10:06:37;1.40;;;0.70;;
70707;SDS011;58277;47.316;18.908;2024-03-29T10:09:01;1.10;;;0.47;;
70707;SDS011;58277;47.316;18.908;2024-03-29T10:11:23;2.55;;;0.80;;
70707;SDS011;58277;47.316;18.908;2024-03-29T10:13:45;1.85;;;0.38;;
70707;SDS011;58277;47.316;18.908;2024-03-29T10:16:07;3.05;;;0.60;;
70707;SDS011;58277;47.316;18.908;2024-03-29T10:18:32;2.17;;;0.70;;
70707;SDS011;58277;47.316;18.908;2024-03-29T10:21:00;1.43;;;0.50;;
70707;SDS011;58277;47.316;18.908;2024-03-29T10:23:28;1.60;;;0.85;;
70707;SDS011;58277;47.316;18.908;2024-03-29T10:25:51;2.00;;;0.65;;
70707;SDS011;58277;47.316;18.908;2024-03-29T10:28:12;1.92;;;0.68;;
70707;SDS011;58277;47.316;18.908;2024-03-29T10:30:34;2.28;;;0.70;;
70707;SDS011;58277;47.316;18.908;2024-03-29T10:32:56;1.80;;;0.73;;
70707;SDS011;58277;47.316;18.908;2024-03-29T10:35:18;1.35;;;0.60;;
70707;SDS011;58277;47.316;18.908;2024-03-29T10:37:41;1.55;;;0.70;;
70707;SDS011;58277;47.316;18.908;2024-03-29T10:40:06;1.55;;;0.70;;
70707;SDS011;58277;47.316;18.908;2024-03-29T10:42:29;1.60;;;0.55;;
70707;SDS011;58277;47.316;18.908;2024-03-29T10:44:54;2.77;;;0.60;;
70707;SDS011;58277;47.316;18.908;2024-03-29T10:47:18;1.50;;;0.70;;
70707;SDS011;58277;47.316;18.908;2024-03-29T10:49:41;3.05;;;0.70;;
70707;SDS011;58277;47.316;18.908;2024-03-29T10:52:03;2.90;;;0.70;;
70707;SDS011;58277;47.316;18.908;2024-03-29T10:54:26;2.80;;;0.75;;
70707;SDS011;58277;47.316;18.908;2024-03-29T10:56:50;2.50;;;0.80;;
70707;SDS011;58277;47.316;18.908;2024-03-29T10:59:34;3.28;;;0.68;;
70707;SDS011;58277;47.316;18.908;2024-03-29T11:02:00;2.50;;;0.63;;
70707;SDS011;58277;47.316;18.908;2024-03-29T11:04:29;2.78;;;0.93;;
70707;SDS011;58277;47.316;18.908;2024-03-29T11:06:57;2.92;;;1.08;;
70707;SDS011;58277;47.316;18.908;2024-03-29T11:09:20;2.77;;;0.70;;
70707;SDS011;58277;47.316;18.908;2024-03-29T11:11:44;2.58;;;0.60;;
70707;SDS011;58277;47.316;18.908;2024-03-29T11:14:13;5.05;;;1.08;;
70707;SDS011;58277;47.316;18.908;2024-03-29T11:16:44;5.05;;;0.70;;
70707;SDS011;58277;47.316;18.908;2024-03-29T11:19:08;4.00;;;0.98;;
70707;SDS011;58277;47.316;18.908;2024-03-29T11:21:31;4.63;;;0.83;;
70707;SDS011;58277;47.316;18.908;2024-03-29T11:23:53;2.53;;;0.73;;
70707;SDS011;58277;47.316;18.908;2024-03-29T11:26:16;6.70;;;1.00;;
70707;SDS011;58277;47.316;18.908;2024-03-29T11:28:38;4.25;;;1.00;;
70707;SDS011;58277;47.316;18.908;2024-03-29T11:31:07;3.78;;;0.65;;
70707;SDS011;58277;47.316;18.908;2024-03-29T11:35:51;5.40;;;0.90;;
70707;SDS011;58277;47.316;18.908;2024-03-29T11:38:16;3.88;;;0.80;;
70707;SDS011;58277;47.316;18.908;2024-03-29T11:40:41;5.65;;;1.00;;
70707;SDS011;58277;47.316;18.908;2024-03-29T11:43:03;5.43;;;0.80;;
70707;SDS011;58277;47.316;18.908;2024-03-29T11:45:25;4.00;;;0.80;;
70707;SDS011;58277;47.316;18.908;2024-03-29T11:47:49;2.65;;;0.70;;
70707;SDS011;58277;47.316;18.908;2024-03-29T11:50:12;4.68;;;1.02;;
70707;SDS011;58277;47.316;18.908;2024-03-29T11:52:35;4.32;;;1.05;;
70707;SDS011;58277;47.316;18.908;2024-03-29T11:54:59;5.28;;;1.05;;
70707;SDS011;58277;47.316;18.908;2024-03-29T11:57:21;6.10;;;1.00;;
70707;SDS011;58277;47.316;18.908;2024-03-29T11:59:43;3.13;;;0.90;;
70707;SDS011;58277;47.316;18.908;2024-03-29T12:02:04;3.33;;;0.85;;
70707;SDS011;58277;47.316;18.908;2024-03-29T12:04:32;6.30;;;1.00;;
70707;SDS011;58277;47.316;18.908;2024-03-29T12:06:54;4.60;;;1.00;;
70707;SDS011;58277;47.316;18.908;2024-03-29T12:09:16;4.40;;;1.03;;
70707;SDS011;58277;47.316;18.908;2024-03-29T12:11:37;3.17;;;0.98;;
70707;SDS011;58277;47.316;18.908;2024-03-29T12:13:59;4.30;;;1.10;;
70707;SDS011;58277;47.316;18.908;2024-03-29T12:16:21;3.53;;;1.02;;
70707;SDS011;58277;47.316;18.908;2024-03-29T12:18:46;4.85;;;1.10;;
70707;SDS011;58277;47.316;18.908;2024-03-29T12:21:09;5.77;;;1.00;;
70707;SDS011;58277;47.316;18.908;2024-03-29T12:23:31;2.70;;;0.90;;
70707;SDS011;58277;47.316;18.908;2024-03-29T12:25:54;5.00;;;0.90;;
70707;SDS011;58277;47.316;18.908;2024-03-29T12:28:19;3.40;;;1.20;;
70707;SDS011;58277;47.316;18.908;2024-03-29T12:30:45;5.13;;;1.10;;
70707;SDS011;58277;47.316;18.908;2024-03-29T12:33:11;4.63;;;0.93;;
70707;SDS011;58277;47.316;18.908;2024-03-29T12:35:37;3.17;;;1.02;;
70707;SDS011;58277;47.316;18.908;2024-03-29T12:37:59;8.52;;;1.25;;
70707;SDS011;58277;47.316;18.908;2024-03-29T12:40:21;6.70;;;1.00;;
70707;SDS011;58277;47.316;18.908;2024-03-29T12:42:46;5.90;;;1.05;;
70707;SDS011;58277;47.316;18.908;2024-03-29T12:45:08;3.50;;;1.03;;
70707;SDS011;58277;47.316;18.908;2024-03-29T12:47:32;7.47;;;1.00;;
70707;SDS011;58277;47.316;18.908;2024-03-29T12:49:55;7.82;;;1.00;;
70707;SDS011;58277;47.316;18.908;2024-03-29T12:52:16;6.22;;;1.30;;
70707;SDS011;58277;47.316;18.908;2024-03-29T12:54:38;4.75;;;1.00;;
70707;SDS011;58277;47.316;18.908;2024-03-29T12:57:00;4.80;;;1.00;;
70707;SDS011;58277;47.316;18.908;2024-03-29T12:59:28;6.65;;;1.10;;
70707;SDS011;58277;47.316;18.908;2024-03-29T13:01:50;6.13;;;1.15;;
70707;SDS011;58277;47.316;18.908;2024-03-29T13:04:12;4.40;;;0.82;;
70707;SDS011;58277;47.316;18.908;2024-03-29T13:06:33;4.07;;;1.10;;
70707;SDS011;58277;47.316;18.908;2024-03-29T13:08:55;4.03;;;0.93;;
70707;SDS011;58277;47.316;18.908;2024-03-29T13:11:17;3.35;;;0.98;;
70707;SDS011;58277;47.316;18.908;2024-03-29T13:13:39;8.32;;;1.20;;
70707;SDS011;58277;47.316;18.908;2024-03-29T13:16:01;5.10;;;1.35;;
70707;SDS011;58277;47.316;18.908;2024-03-29T13:18:23;5.18;;;1.20;;
70707;SDS011;58277;47.316;18.908;2024-03-29T13:20:44;4.07;;;1.00;;
70707;SDS011;58277;47.316;18.908;2024-03-29T13:23:06;4.57;;;1.13;;
70707;SDS011;58277;47.316;18.908;2024-03-29T13:25:29;4.93;;;1.08;;
70707;SDS011;58277;47.316;18.908;2024-03-29T13:27:51;3.40;;;1.00;;
70707;SDS011;58277;47.316;18.908;2024-03-29T13:30:17;4.45;;;1.23;;
70707;SDS011;58277;47.316;18.908;2024-03-29T13:32:39;9.40;;;1.20;;
70707;SDS011;58277;47.316;18.908;2024-03-29T13:35:01;9.15;;;1.38;;
70707;SDS011;58277;47.316;18.908;2024-03-29T13:37:26;6.45;;;1.20;;
70707;SDS011;58277;47.316;18.908;2024-03-29T13:39:48;5.50;;;1.10;;
70707;SDS011;58277;47.316;18.908;2024-03-29T13:42:10;4.63;;;1.15;;
70707;SDS011;58277;47.316;18.908;2024-03-29T13:44:34;3.80;;;0.93;;
70707;SDS011;58277;47.316;18.908;2024-03-29T13:46:55;6.68;;;1.48;;
70707;SDS011;58277;47.316;18.908;2024-03-29T13:49:17;4.78;;;1.20;;
70707;SDS011;58277;47.316;18.908;2024-03-29T13:51:42;4.53;;;0.98;;
70707;SDS011;58277;47.316;18.908;2024-03-29T13:54:03;5.63;;;1.20;;
70707;SDS011;58277;47.316;18.908;2024-03-29T13:56:26;4.80;;;1.37;;
70707;SDS011;58277;47.316;18.908;2024-03-29T13:58:48;4.40;;;1.10;;
70707;SDS011;58277;47.316;18.908;2024-03-29T14:01:09;5.97;;;1.20;;
70707;SDS011;58277;47.316;18.908;2024-03-29T14:03:31;4.32;;;1.38;;
70707;SDS011;58277;47.316;18.908;2024-03-29T14:05:53;3.75;;;1.13;;
70707;SDS011;58277;47.316;18.908;2024-03-29T14:08:15;6.53;;;1.67;;